Accedi per prenotare

Caricamento...

Situazione Metar e Taf aeroporto Pisa - Effemeridi Aeroporto Lucca

[Source: ADDS]
METAR
LIRP 222115Z 30003KT CAVOK 24/23 Q1020 NOSIG =
LIRP 221700Z 2218/2318 12005KT CAVOK BECMG 2310/2312 30010KT BECMG 2316/2318 10005KT
TAF
LIRP 221700Z 2218/2318 12005KT CAVOK BECMG 2310/2312 30010KT BECMG 2316/2318 10005KT =
SR / SS: 04:00 / 18:52 UTC (Effemeridi LIQL 2019-07-22)